Time;durP1;ratioP1;P1;durP2;ratioP2;P2;SDS_P1;SDS_P2;PMS_P1;PMS_P2;Temp;Humidity;BMP_temperature;BMP_pressure;BME280_temperature;BME280_humidity;BME280_pressure;Samples;Min_cycle;Max_cycle;Signal;HPM_P1;HPM_P2
2023/09/21 00:00:36;;;;;;;0.10;0.10;;;;;;;12.74;100.00;97612.13;7397115;19;20029;-87
2023/09/21 00:03:03;;;;;;;0.10;0.10;;;;;;;13.22;100.00;97625.44;7395809;19;20018;-86
2023/09/21 00:05:31;;;;;;;0.30;0.30;;;;;;;12.46;100.00;97628.78;7396445;19;20030;-87
2023/09/21 00:07:57;;;;;;;0.47;0.38;;;;;;;11.90;100.00;97627.22;7399868;19;20021;-87
2023/09/21 00:10:31;;;;;;;0.38;0.38;;;;;;;10.66;100.00;97634.00;7398636;19;20490;-87
2023/09/21 00:13:00;;;;;;;0.10;0.10;;;;;;;11.03;100.00;97644.28;7396045;19;20010;-87
2023/09/21 00:15:29;;;;;;;0.20;0.20;;;;;;;10.73;100.00;97638.22;7405999;19;20014;-87
2023/09/21 00:17:58;;;;;;;0.20;0.20;;;;;;;11.50;100.00;97631.28;7399455;19;20073;-87
2023/09/21 00:20:28;;;;;;;0.50;0.50;;;;;;;11.66;100.00;97638.56;7396263;19;20031;-86
2023/09/21 00:22:55;;;;;;;0.10;0.10;;;;;;;10.38;100.00;97633.69;7394715;19;20022;-87
2023/09/21 00:25:23;;;;;;;0.20;0.20;;;;;;;10.38;100.00;97636.47;7393774;19;20010;-87
2023/09/21 00:27:49;;;;;;;4.85;0.98;;;;;;;10.62;100.00;97645.47;7400158;19;20106;-87
2023/09/21 00:30:15;;;;;;;0.20;0.20;;;;;;;10.44;100.00;97632.31;7394461;19;20014;-87
2023/09/21 00:32:42;;;;;;;0.65;0.65;;;;;;;11.47;100.00;97631.59;7393063;19;20787;-87
2023/09/21 00:35:10;;;;;;;0.10;0.10;;;;;;;10.27;100.00;97642.94;7395286;19;20547;-87
2023/09/21 00:37:38;;;;;;;5.05;1.10;;;;;;;9.94;100.00;97632.22;7397947;19;20030;-87
2023/09/21 00:40:17;;;;;;;3.08;0.85;;;;;;;10.59;100.00;97637.41;7394467;19;20014;-87
2023/09/21 00:42:47;;;;;;;0.20;0.20;;;;;;;11.60;100.00;97632.38;7394833;19;20384;-87
2023/09/21 00:45:14;;;;;;;0.10;0.10;;;;;;;9.96;100.00;97629.69;7393148;19;20077;-86
2023/09/21 00:47:51;;;;;;;0.25;0.25;;;;;;;9.90;100.00;97629.00;7397422;19;20015;-87
2023/09/21 00:50:22;;;;;;;0.20;0.20;;;;;;;10.15;100.00;97630.47;7395399;19;20606;-87
2023/09/21 00:52:53;;;;;;;1.85;0.63;;;;;;;9.79;100.00;97631.91;7395695;19;20011;-87
2023/09/21 00:55:29;;;;;;;0.35;0.35;;;;;;;9.92;100.00;97629.22;7395155;19;20359;-87
2023/09/21 00:58:00;;;;;;;0.28;0.28;;;;;;;10.45;100.00;97628.28;7397634;19;20019;-87
2023/09/21 01:00:27;;;;;;;0.43;0.32;;;;;;;10.28;100.00;97630.56;7394029;19;20026;-87
2023/09/21 01:03:07;;;;;;;0.20;0.20;;;;;;;10.67;100.00;97629.97;7395509;19;20345;-87
2023/09/21 01:05:39;;;;;;;7.53;0.75;;;;;;;11.11;100.00;97622.91;7392171;19;20019;-87
2023/09/21 01:08:10;;;;;;;0.20;0.20;;;;;;;11.35;100.00;97617.88;7398742;19;20018;-87
2023/09/21 01:10:38;;;;;;;;;;;;;;;11.91;100.00;97614.75;7400163;19;20014;-87
2023/09/21 01:13:04;;;;;;;0.30;0.30;;;;;;;12.23;100.00;97609.03;7393626;19;19923;-87
2023/09/21 01:15:32;;;;;;;0.20;0.20;;;;;;;12.38;100.00;97611.22;7393032;19;20041;-87
2023/09/21 01:17:58;;;;;;;0.50;0.50;;;;;;;12.35;100.00;97606.72;7398796;19;20026;-88
2023/09/21 01:22:57;;;;;;;0.27;0.27;;;;;;;12.43;100.00;97607.56;7393321;19;20021;-87
2023/09/21 01:25:27;;;;;;;0.65;0.65;;;;;;;12.41;100.00;97615.72;7392249;19;20260;-87
2023/09/21 01:27:53;;;;;;;0.30;0.30;;;;;;;15.00;100.00;97621.72;7398109;19;20019;-88
2023/09/21 01:30:19;;;;;;;0.20;0.20;;;;;;;11.94;100.00;97616.50;7397286;19;20015;-87
2023/09/21 01:32:46;;;;;;;0.50;0.50;;;;;;;11.79;100.00;97619.09;7393740;19;20409;-88
2023/09/21 01:35:16;;;;;;;0.20;0.20;;;;;;;11.52;100.00;97617.56;7393877;19;20026;-87
2023/09/21 01:37:45;;;;;;;0.20;0.20;;;;;;;11.69;100.00;97620.81;7395994;19;20042;-88
2023/09/21 01:40:15;;;;;;;0.98;0.95;;;;;;;12.21;100.00;97611.59;7392478;19;20019;-87
2023/09/21 01:42:48;;;;;;;0.40;0.40;;;;;;;13.10;100.00;97613.06;7391928;19;20010;-87
2023/09/21 01:45:15;;;;;;;0.20;0.20;;;;;;;11.65;100.00;97609.19;7393306;19;20025;-88
2023/09/21 01:47:43;;;;;;;0.20;0.20;;;;;;;12.46;100.00;97601.63;7396114;19;20054;-88
2023/09/21 01:50:15;;;;;;;0.20;0.20;;;;;;;13.04;100.00;97620.78;7391341;19;20038;-88
2023/09/21 01:52:42;;;;;;;0.20;0.17;;;;;;;12.52;100.00;97604.28;7392050;19;20499;-87
2023/09/21 01:55:10;;;;;;;0.20;0.20;;;;;;;12.89;100.00;97615.06;7392195;19;20015;-87
2023/09/21 01:57:39;;;;;;;1.30;1.20;;;;;;;12.90;100.00;97627.75;7396707;19;20471;-88
2023/09/21 02:00:21;;;;;;;0.20;0.20;;;;;;;13.20;100.00;97627.28;7398055;19;20018;-87
2023/09/21 02:02:48;;;;;;;0.13;0.13;;;;;;;13.22;100.00;97625.44;7394151;19;20022;-88
2023/09/21 02:05:15;;;;;;;0.32;0.32;;;;;;;12.08;100.00;97640.25;7392434;19;20576;-87
2023/09/21 02:07:45;;;;;;;4.03;1.00;;;;;;;13.27;100.00;97637.78;7395714;19;20499;-88
2023/09/21 02:10:13;;;;;;;0.20;0.20;;;;;;;12.59;100.00;97631.53;7393761;19;20040;-89
2023/09/21 02:12:39;;;;;;;0.50;0.50;;;;;;;11.83;100.00;97636.25;7392557;19;20022;-88
2023/09/21 02:15:12;;;;;;;0.35;0.28;;;;;;;11.16;100.00;97635.97;7390301;19;20701;-88
2023/09/21 02:17:40;;;;;;;0.25;0.25;;;;;;;10.81;100.00;97633.50;7393702;19;20351;-87
2023/09/21 02:20:13;;;;;;;0.10;0.10;;;;;;;10.58;100.00;97639.47;7391285;19;20571;-86
2023/09/21 02:22:50;;;;;;;0.20;0.20;;;;;;;10.56;100.00;97653.16;7393192;19;20038;-86
2023/09/21 02:25:17;;;;;;;1.40;0.50;;;;;;;10.55;100.00;97648.84;7389734;19;20344;-86
2023/09/21 02:27:47;;;;;;;1.05;0.28;;;;;;;10.80;100.00;97657.09;7401391;19;20022;-86
2023/09/21 02:30:21;;;;;;;0.20;0.20;;;;;;;10.66;100.00;97651.47;7399163;19;20023;-85
2023/09/21 02:32:52;;;;;;;0.40;0.40;;;;;;;10.57;100.00;97649.06;7398183;19;20019;-87
2023/09/21 02:35:26;;;;;;;0.85;0.50;;;;;;;10.47;100.00;97636.84;7398458;19;20354;-87
2023/09/21 02:37:56;;;;;;;0.10;0.10;;;;;;;10.00;100.00;97646.06;7400632;19;20010;-86
2023/09/21 02:40:24;;;;;;;0.20;0.20;;;;;;;10.73;100.00;97647.31;7397351;19;20345;-85
2023/09/21 02:42:52;;;;;;;0.30;0.30;;;;;;;10.73;100.00;97649.34;7396539;19;20081;-86
2023/09/21 02:45:23;;;;;;;0.40;0.40;;;;;;;11.46;100.00;97646.84;7396216;19;20073;-87
2023/09/21 02:47:52;;;;;;;0.10;0.10;;;;;;;10.82;100.00;97643.38;7401121;19;20021;-86
2023/09/21 02:50:27;;;;;;;0.10;0.10;;;;;;;10.68;100.00;97648.91;7398947;19;20021;-88
2023/09/21 02:52:54;;;;;;;0.20;0.20;;;;;;;10.61;100.00;97652.31;7397755;19;20139;-88
2023/09/21 02:55:23;;;;;;;0.20;0.20;;;;;;;11.03;100.00;97647.84;7400401;19;20010;-88
2023/09/21 02:58:15;;;;;;;0.20;0.20;;;;;;;11.48;100.00;97655.41;7401420;19;20014;-88
2023/09/21 03:01:02;;;;;;;0.40;0.32;;;;;;;10.84;100.00;97661.06;7397107;19;20476;-87
2023/09/21 03:03:30;;;;;;;0.20;0.20;;;;;;;11.10;100.00;97652.03;7396226;19;20082;-88
2023/09/21 03:05:56;;;;;;;0.50;0.50;;;;;;;10.90;100.00;97658.19;7395025;19;20014;-87
2023/09/21 03:08:23;;;;;;;8.98;0.47;;;;;;;10.52;100.00;97649.16;7401032;19;20010;-87
2023/09/21 03:10:54;;;;;;;0.30;0.30;;;;;;;10.36;100.00;97650.16;7401104;19;20686;-88
2023/09/21 03:13:23;;;;;;;0.20;0.20;;;;;;;10.49;100.00;97653.75;7395438;19;20011;-89
2023/09/21 03:15:58;;;;;;;0.30;0.30;;;;;;;10.07;100.00;97651.78;7396673;19;20046;-88
2023/09/21 03:18:25;;;;;;;0.40;0.40;;;;;;;10.70;100.00;97656.72;7400994;19;20089;-87
2023/09/21 03:20:52;;;;;;;0.20;0.20;;;;;;;10.68;100.00;97653.00;7400379;19;20380;-87
2023/09/21 03:23:18;;;;;;;0.40;0.40;;;;;;;11.08;100.00;97646.25;7395989;19;20018;-87
2023/09/21 03:25:53;;;;;;;0.55;0.35;;;;;;;10.95;100.00;97654.56;7395103;19;20023;-87
2023/09/21 03:28:22;;;;;;;0.20;0.20;;;;;;;10.59;100.00;97645.75;7400242;19;20024;-87
2023/09/21 03:30:51;;;;;;;0.20;0.20;;;;;;;10.39;100.00;97649.88;7396121;19;20029;-87
2023/09/21 03:33:20;;;;;;;0.40;0.40;;;;;;;10.32;100.00;97649.72;7398854;19;20025;-87
2023/09/21 03:35:46;;;;;;;0.20;0.20;;;;;;;10.32;100.00;97644.16;7394220;19;20030;-87
2023/09/21 03:38:13;;;;;;;0.30;0.30;;;;;;;10.32;100.00;97642.13;7400379;19;20014;-87
2023/09/21 03:40:40;;;;;;;0.90;0.60;;;;;;;10.07;100.00;97640.66;7398087;19;20018;-87
2023/09/21 03:43:15;;;;;;;0.20;0.20;;;;;;;10.03;100.00;97645.03;7394466;19;20014;-88
2023/09/21 03:45:43;;;;;;;0.30;0.30;;;;;;;10.03;100.00;97633.91;7392593;19;20030;-87
2023/09/21 03:48:11;;;;;;;0.35;0.35;;;;;;;10.15;100.00;97636.03;7399423;19;20014;-88
2023/09/21 03:50:40;;;;;;;0.20;0.20;;;;;;;12.00;100.00;97633.84;7396868;19;20025;-87
2023/09/21 03:53:09;;;;;;;0.40;0.40;;;;;;;13.01;100.00;97633.06;7396081;19;20345;-87
2023/09/21 03:55:37;;;;;;;1.65;1.00;;;;;;;13.00;100.00;97637.16;7396878;19;20011;-87
2023/09/21 03:58:05;;;;;;;0.73;0.40;;;;;;;13.49;100.00;97637.91;7401162;19;20047;-87
2023/09/21 04:03:11;;;;;;;0.20;0.20;;;;;;;13.54;100.00;97628.63;7395311;19;20014;-87
2023/09/21 04:06:12;;;;;;;0.30;0.30;;;;;;;12.35;100.00;97640.22;7389745;19;20479;-87
2023/09/21 04:08:38;;;;;;;0.30;0.30;;;;;;;12.61;100.00;97628.94;7390707;19;20025;-87
2023/09/21 04:11:05;;;;;;;0.22;0.22;;;;;;;9.09;100.00;97627.41;7395655;19;20023;-87
2023/09/21 04:16:12;;;;;;;1.08;0.47;;;;;;;9.48;100.00;97636.09;7389567;19;20014;-52
2023/09/21 04:18:38;;;;;;;0.40;0.40;;;;;;;11.87;100.00;97621.97;7391282;19;20044;-51
2023/09/21 04:21:08;;;;;;;0.20;0.20;;;;;;;12.69;100.00;97619.34;7396435;19;20019;-52
2023/09/21 04:23:35;;;;;;;0.30;0.30;;;;;;;12.12;100.00;97618.41;7393996;19;20023;-51
2023/09/21 04:26:01;;;;;;;0.22;0.22;;;;;;;12.14;100.00;97615.81;7396165;19;20014;-52
2023/09/21 04:28:27;;;;;;;0.60;0.52;;;;;;;11.96;100.00;97616.69;7400040;19;20011;-52
2023/09/21 04:30:53;;;;;;;0.40;0.40;;;;;;;11.63;100.00;97614.56;7397601;19;20086;-52
2023/09/21 04:33:19;;;;;;;0.20;0.20;;;;;;;11.22;100.00;97611.53;7396923;19;20035;-52
2023/09/21 04:35:45;;;;;;;0.20;0.20;;;;;;;8.94;100.00;97621.47;7396178;19;20007;-52
2023/09/21 04:38:11;;;;;;;0.28;0.28;;;;;;;9.81;100.00;97634.94;7398622;19;20014;-52
2023/09/21 04:40:38;;;;;;;1.20;0.55;;;;;;;11.88;100.00;97621.44;7395567;19;20017;-52
2023/09/21 04:43:04;;;;;;;0.35;0.35;;;;;;;9.43;100.00;97620.22;7396742;19;20015;-52
2023/09/21 04:45:32;;;;;;;0.85;0.50;;;;;;;10.06;100.00;97630.81;7394918;19;20010;-52
2023/09/21 04:48:03;;;;;;;0.43;0.43;;;;;;;9.13;100.00;97628.63;7400095;19;20021;-52
2023/09/21 04:50:33;;;;;;;0.90;0.85;;;;;;;9.23;100.00;97642.13;7394823;19;20074;-52
2023/09/21 04:52:59;;;;;;;0.80;0.60;;;;;;;9.61;100.00;97638.22;7395758;19;20022;-53
2023/09/21 04:55:25;;;;;;;0.98;0.35;;;;;;;8.78;100.00;97636.25;7394416;19;20013;-59
2023/09/21 04:57:52;;;;;;;0.20;0.20;;;;;;;10.67;100.00;97629.97;7398244;19;20451;-54
2023/09/21 05:00:18;;;;;;;0.35;0.35;;;;;;;12.33;100.00;97626.03;7394951;19;20065;-55
2023/09/21 05:02:45;;;;;;;0.20;0.20;;;;;;;10.24;100.00;97632.88;7395481;19;20011;-52
2023/09/21 05:05:15;;;;;;;0.30;0.30;;;;;;;10.13;100.00;97637.84;7394409;19;20335;-52
2023/09/21 05:07:42;;;;;;;0.30;0.30;;;;;;;9.87;100.00;97630.78;7397217;19;20023;-52
2023/09/21 05:10:11;;;;;;;0.30;0.30;;;;;;;9.44;100.00;97645.97;7396099;19;20323;-52
2023/09/21 05:12:38;;;;;;;0.30;0.30;;;;;;;10.30;100.00;97641.91;7394776;19;20019;-52
2023/09/21 05:15:06;;;;;;;0.70;0.50;;;;;;;10.30;100.00;97647.47;7395720;19;20023;-51
2023/09/21 05:17:33;;;;;;;0.20;0.20;;;;;;;9.45;100.00;97653.03;7397708;19;20019;-52
2023/09/21 05:19:59;;;;;;;0.38;0.38;;;;;;;10.96;100.00;97650.50;7394795;19;20018;-52
2023/09/21 05:22:25;;;;;;;0.73;0.43;;;;;;;11.13;100.00;97653.75;7395176;19;20010;-57
2023/09/21 05:24:52;;;;;;;0.35;0.35;;;;;;;9.73;100.00;97656.25;7395779;19;20017;-52
2023/09/21 05:27:18;;;;;;;0.30;0.30;;;;;;;10.70;100.00;97667.13;7396991;19;20037;-51
2023/09/21 05:29:44;;;;;;;0.30;0.30;;;;;;;9.27;100.00;97670.41;7395252;19;20029;-52
2023/09/21 05:32:10;;;;;;;0.20;0.20;;;;;;;9.54;100.00;97677.69;7394896;19;20015;-52
2023/09/21 05:34:36;;;;;;;0.35;0.35;;;;;;;8.78;100.00;97675.84;7394674;19;20022;-53
2023/09/21 05:37:02;;;;;;;0.30;0.30;;;;;;;7.54;100.00;97698.38;7396447;19;20034;-52
2023/09/21 05:39:28;;;;;;;0.40;0.40;;;;;;;8.64;100.00;97693.59;7394632;19;20021;-51
2023/09/21 05:41:55;;;;;;;0.40;0.40;;;;;;;9.20;100.00;97693.19;7394160;19;20328;-52
2023/09/21 05:44:22;;;;;;;1.02;0.28;;;;;;;11.35;100.00;97695.16;7392657;19;20010;-52
2023/09/21 05:46:51;;;;;;;0.20;0.20;;;;;;;9.88;100.00;97689.94;7393754;19;20007;-52
2023/09/21 05:49:24;;;;;;;0.30;0.30;;;;;;;8.23;100.00;97699.13;7394277;19;20347;-51
2023/09/21 05:51:56;;;;;;;0.40;0.40;;;;;;;9.85;100.00;97702.13;7398688;19;20070;-51
2023/09/21 05:54:25;;;;;;;0.30;0.30;;;;;;;10.38;100.00;97700.44;7393570;19;20471;-51
2023/09/21 05:56:55;;;;;;;0.20;0.20;;;;;;;9.95;100.00;97694.91;7395052;19;20010;-52
2023/09/21 05:59:22;;;;;;;0.40;0.40;;;;;;;9.34;100.00;97697.56;7394316;19;20017;-52
2023/09/21 06:01:49;;;;;;;1.00;0.88;;;;;;;10.15;100.00;97708.34;7393467;19;20029;-51
2023/09/21 06:04:17;;;;;;;0.30;0.30;;;;;;;9.70;100.00;97712.91;7393948;19;20028;-51
2023/09/21 06:06:44;;;;;;;0.52;0.52;;;;;;;9.46;100.00;97702.53;7390434;19;20585;-51
2023/09/21 06:09:13;;;;;;;3.40;1.10;;;;;;;9.85;100.00;97710.44;7394531;19;20010;-52
2023/09/21 06:11:39;;;;;;;0.40;0.40;;;;;;;10.00;100.00;97707.25;7393999;19;20049;-51
2023/09/21 06:14:05;;;;;;;0.30;0.30;;;;;;;10.86;100.00;97696.72;7393730;19;20343;-52
2023/09/21 06:16:32;;;;;;;0.20;0.20;;;;;;;10.04;100.00;97705.69;7393136;19;20011;-51
2023/09/21 06:19:00;;;;;;;0.57;0.57;;;;;;;9.81;100.00;97718.34;7393227;19;20454;-51
2023/09/21 06:21:27;;;;;;;2.58;1.58;;;;;;;10.16;100.00;97709.84;7396282;19;20070;-51
2023/09/21 06:23:54;;;;;;;2.17;0.85;;;;;;;10.93;100.00;97712.81;7394143;19;20073;-52
2023/09/21 06:26:22;;;;;;;2.15;0.30;;;;;;;10.40;100.00;97723.69;7392797;19;20022;-51
2023/09/21 06:28:49;;;;;;;0.40;0.40;;;;;;;9.71;100.00;97719.94;7393059;19;20014;-52
2023/09/21 06:31:16;;;;;;;0.43;0.43;;;;;;;9.88;100.00;97726.06;7393406;19;20019;-51
2023/09/21 06:33:42;;;;;;;0.20;0.20;;;;;;;9.41;100.00;97731.09;7395148;19;20354;-51
2023/09/21 06:36:15;;;;;;;0.75;0.30;;;;;;;9.66;100.00;97718.72;7393954;19;20011;-51
2023/09/21 06:38:45;;;;;;;0.40;0.40;;;;;;;9.14;100.00;97730.06;7393817;19;20014;-51
2023/09/21 06:41:11;;;;;;;0.28;0.28;;;;;;;9.72;100.00;97724.25;7393241;19;20019;-52
2023/09/21 06:43:38;;;;;;;0.40;0.40;;;;;;;9.79;100.00;97723.63;7392515;19;20014;-51
2023/09/21 06:46:05;;;;;;;1.15;0.50;;;;;;;9.31;100.00;97731.97;7389194;19;20018;-51
2023/09/21 06:48:31;;;;;;;1.42;0.75;;;;;;;10.17;100.00;97730.81;7392362;19;20010;-52
2023/09/21 06:50:57;;;;;;;0.47;0.47;;;;;;;10.04;100.00;97727.16;7393446;19;20492;-51
2023/09/21 06:53:24;;;;;;;0.30;0.30;;;;;;;10.29;100.00;97729.41;7392348;19;20018;-51
2023/09/21 06:55:50;;;;;;;0.20;0.20;;;;;;;11.70;100.00;97724.72;7392897;19;20011;-52
2023/09/21 06:58:17;;;;;;;0.20;0.20;;;;;;;10.25;100.00;97728.94;7396273;19;20495;-51
2023/09/21 07:00:43;;;;;;;0.50;0.50;;;;;;;10.76;100.00;97727.00;7391715;19;20021;-51
2023/09/21 07:03:10;;;;;;;0.28;0.28;;;;;;;10.56;100.00;97731.09;7391241;19;20021;-51
2023/09/21 07:05:37;;;;;;;0.32;0.32;;;;;;;10.21;100.00;97727.75;7388104;19;20028;-51
2023/09/21 07:08:03;;;;;;;0.50;0.50;;;;;;;9.26;100.00;97735.53;7391783;19;20079;-51
2023/09/21 07:10:29;;;;;;;0.28;0.28;;;;;;;9.26;100.00;97735.53;7395841;19;20022;-51
2023/09/21 07:12:56;;;;;;;0.30;0.30;;;;;;;8.74;100.00;97736.44;7396272;19;20074;-51
2023/09/21 07:15:23;;;;;;;0.20;0.20;;;;;;;9.66;100.00;97729.84;7403687;19;20336;-51
2023/09/21 07:17:50;;;;;;;5.88;0.52;;;;;;;10.00;100.00;97727.47;7400281;19;20387;-51
2023/09/21 07:20:23;;;;;;;0.40;0.40;;;;;;;10.20;100.00;97732.53;7401222;19;20284;-51
2023/09/21 07:22:50;;;;;;;0.10;0.10;;;;;;;10.39;100.00;97736.13;7399860;19;20014;-51
2023/09/21 07:25:16;;;;;;;0.17;0.17;;;;;;;12.24;100.00;97743.69;7401927;19;20017;-58
2023/09/21 07:27:43;;;;;;;0.28;0.28;;;;;;;9.22;100.00;97737.84;7398475;19;20025;-59
2023/09/21 07:30:09;;;;;;;0.25;0.25;;;;;;;9.67;100.00;97727.81;7398310;19;20011;-59
2023/09/21 07:32:35;;;;;;;0.40;0.40;;;;;;;9.92;100.00;97726.53;7398672;19;20026;-59
2023/09/21 07:35:06;;;;;;;0.20;0.20;;;;;;;10.83;100.00;97720.81;7400837;19;20023;-59
2023/09/21 07:37:32;;;;;;;0.75;0.75;;;;;;;10.44;100.00;97718.56;7398719;19;20010;-59
2023/09/21 07:40:04;;;;;;;0.40;0.40;;;;;;;10.74;100.00;97717.69;7397669;19;20478;-60
2023/09/21 07:42:30;;;;;;;0.55;0.55;;;;;;;10.54;100.00;97725.28;7397229;19;20014;-60
2023/09/21 07:44:57;;;;;;;0.20;0.20;;;;;;;10.70;100.00;97726.31;7401968;19;20364;-59
2023/09/21 07:47:23;;;;;;;0.98;0.50;;;;;;;10.31;100.00;97726.84;7398155;19;20045;-60
2023/09/21 07:49:50;;;;;;;0.20;0.20;;;;;;;9.29;100.00;97731.72;7398411;19;20482;-60
2023/09/21 07:52:18;;;;;;;0.45;0.45;;;;;;;10.24;100.00;97733.03;7398377;19;20017;-60
2023/09/21 07:54:44;;;;;;;10.35;0.85;;;;;;;10.59;100.00;97724.44;7400034;19;20074;-60
2023/09/21 07:57:10;;;;;;;0.40;0.40;;;;;;;12.93;100.00;97721.63;7396125;19;20023;-59
2023/09/21 07:59:36;;;;;;;3.03;0.77;;;;;;;13.50;100.00;97722.56;7398028;19;20078;-59
2023/09/21 08:02:03;;;;;;;0.57;0.57;;;;;;;10.12;100.00;97726.06;7397941;19;20018;-59
2023/09/21 08:04:29;;;;;;;0.30;0.30;;;;;;;10.84;100.00;97727.13;7400795;19;20013;-60
2023/09/21 08:06:56;;;;;;;0.17;0.17;;;;;;;11.22;100.00;97734.13;7399906;19;20023;-59
2023/09/21 08:09:22;;;;;;;0.20;0.20;;;;;;;12.11;100.00;97731.28;7401723;19;20363;-60
2023/09/21 08:11:48;;;;;;;0.40;0.30;;;;;;;12.78;100.00;97727.06;7401464;19;20024;-59
2023/09/21 08:14:14;;;;;;;0.10;0.10;;;;;;;12.39;100.00;97725.13;7401270;19;20007;-60
2023/09/21 08:16:41;;;;;;;0.13;0.13;;;;;;;12.10;100.00;97732.56;7400903;19;20006;-60
2023/09/21 08:19:07;;;;;;;4.13;1.08;;;;;;;12.13;100.00;97733.50;7401577;19;20015;-60
2023/09/21 08:21:34;;;;;;;0.15;0.15;;;;;;;11.98;100.00;97736.09;7400912;19;20011;-60
2023/09/21 08:24:00;;;;;;;0.40;0.40;;;;;;;11.90;100.00;97736.00;7399339;19;20354;-59
2023/09/21 08:26:26;;;;;;;0.40;0.20;;;;;;;12.53;100.00;97734.22;7395074;19;20388;-59
2023/09/21 08:28:53;;;;;;;0.20;0.10;;;;;;;12.26;100.00;97739.09;7396608;19;20034;-59
2023/09/21 08:31:19;;;;;;;0.73;0.73;;;;;;;12.64;100.00;97739.56;7396451;19;20031;-60
2023/09/21 08:33:46;;;;;;;0.20;0.20;;;;;;;12.43;100.00;97741.56;7398332;19;20010;-59
2023/09/21 08:36:15;;;;;;;0.85;0.38;;;;;;;12.77;100.00;97743.09;7396514;19;20017;-59
2023/09/21 08:38:42;;;;;;;0.47;0.47;;;;;;;13.21;100.00;97737.78;7396866;19;20098;-59
2023/09/21 08:41:08;;;;;;;0.13;0.10;;;;;;;12.65;100.00;97746.66;7397302;19;20022;-59
2023/09/21 08:43:35;;;;;;;0.10;0.10;;;;;;;30.22;74.33;97711.63;7397797;19;20025;-59
2023/09/21 08:46:01;;;;;;;0.13;0.13;;;;;;;28.72;55.96;97709.38;7396063;19;20473;-59
2023/09/21 08:48:27;;;;;;;0.47;0.20;;;;;;;24.89;65.80;97710.44;7396390;19;20116;-59
2023/09/21 08:50:57;;;;;;;0.98;0.50;;;;;;;15.31;100.00;97728.28;7398583;19;20027;-59
2023/09/21 08:53:26;;;;;;;0.30;0.30;;;;;;;22.87;100.00;97713.75;7396147;19;20019;-59
2023/09/21 08:55:57;;;;;;;0.43;0.43;;;;;;;35.89;50.15;97698.09;7396463;19;20014;-59
2023/09/21 08:58:24;;;;;;;0.68;0.68;;;;;;;26.59;64.71;97709.56;7397423;19;20014;-59
2023/09/21 09:00:56;;;;;;;0.10;0.10;;;;;;;16.22;100.00;97721.31;7395007;19;20040;-59
2023/09/21 09:03:27;;;;;;;0.35;0.35;;;;;;;14.98;100.00;97714.03;7396700;19;20735;-60
2023/09/21 09:05:58;;;;;;;0.43;0.22;;;;;;;14.95;100.00;97715.13;7394445;19;20014;-59
2023/09/21 09:08:26;;;;;;;0.10;0.10;;;;;;;13.12;100.00;97711.06;7395699;19;20014;-60
2023/09/21 09:10:53;;;;;;;2.28;0.35;;;;;;;14.12;100.00;97719.66;7399874;19;20022;-59
2023/09/21 09:13:33;;;;;;;0.95;0.63;;;;;;;13.64;100.00;97715.59;7396278;19;20031;-57
2023/09/21 09:16:00;;;;;;;2.80;0.32;;;;;;;13.44;100.00;97713.56;7395714;19;20091;-56
2023/09/21 09:18:27;;;;;;;2.50;0.38;;;;;;;13.40;100.00;97722.31;7394413;19;20022;-57
2023/09/21 09:20:54;;;;;;;0.30;0.30;;;;;;;13.45;100.00;97720.66;7396678;19;20030;-56
2023/09/21 09:23:21;;;;;;;0.20;0.20;;;;;;;13.53;100.00;97719.44;7394808;19;20019;-57
2023/09/21 09:25:49;;;;;;;1.30;0.82;;;;;;;13.99;100.00;97723.28;7393792;19;20470;-56
2023/09/21 09:28:16;;;;;;;0.15;0.10;;;;;;;13.84;100.00;97716.88;7395987;19;20023;-56
2023/09/21 09:30:45;;;;;;;0.15;0.15;;;;;;;13.82;100.00;97719.47;7394935;19;20011;-56
2023/09/21 09:33:15;;;;;;;0.32;0.20;;;;;;;14.45;100.00;97718.69;7395288;19;20470;-57
2023/09/21 09:35:41;;;;;;;4.10;0.60;;;;;;;14.07;100.00;97712.16;7392229;19;20023;-57
2023/09/21 09:38:09;;;;;;;0.10;0.10;;;;;;;14.19;100.00;97710.53;7394499;19;20053;-50
2023/09/21 09:40:37;;;;;;;2.05;0.45;;;;;;;14.42;100.00;97708.63;7394155;19;20031;-50
2023/09/21 09:43:07;;;;;;;2.05;1.00;;;;;;;14.65;100.00;97720.66;7395325;19;20015;-50
2023/09/21 09:45:38;;;;;;;1.60;0.60;;;;;;;14.73;100.00;97718.63;7398887;19;20021;-50
2023/09/21 09:48:12;;;;;;;1.85;0.52;;;;;;;14.84;100.00;97721.09;7395179;19;20347;-50
2023/09/21 09:50:41;;;;;;;0.22;0.10;;;;;;;14.51;100.00;97722.09;7394606;19;20375;-50
2023/09/21 09:53:13;;;;;;;2.00;1.35;;;;;;;15.08;100.00;97714.97;7394132;19;20089;-50
2023/09/21 09:55:42;;;;;;;4.88;1.13;;;;;;;14.75;100.00;97723.69;7394633;19;20033;-50
2023/09/21 09:58:09;;;;;;;8.52;1.15;;;;;;;14.80;100.00;97726.31;7394369;19;20010;-50
2023/09/21 10:00:37;;;;;;;0.55;0.55;;;;;;;14.66;100.00;97733.34;7395170;19;20014;-51
2023/09/21 10:03:10;;;;;;;0.63;0.55;;;;;;;16.37;100.00;97718.44;7394692;19;20011;-51
2023/09/21 10:05:36;;;;;;;0.10;0.00;;;;;;;16.27;100.00;97720.34;7393398;19;20075;-57
2023/09/21 10:08:03;;;;;;;1.23;0.45;;;;;;;17.06;100.00;97719.66;7393588;19;20357;-58
2023/09/21 10:10:36;;;;;;;0.10;0.10;;;;;;;16.23;100.00;97722.81;7396696;19;20029;-58
2023/09/21 10:13:03;;;;;;;0.17;0.17;;;;;;;17.31;100.00;97714.06;7392574;19;20369;-57
2023/09/21 10:15:29;;;;;;;0.25;0.05;;;;;;;17.75;100.00;97717.88;7396209;19;20347;-58
2023/09/21 10:17:57;;;;;;;0.10;0.10;;;;;;;18.02;100.00;97715.16;7393381;19;20441;-57
2023/09/21 10:20:27;;;;;;;0.40;0.40;;;;;;;18.13;100.00;97714.69;7394928;19;20014;-58
2023/09/21 10:22:55;;;;;;;0.17;0.08;;;;;;;15.27;100.00;97716.69;7393358;19;20017;-57
2023/09/21 10:25:44;;;;;;;0.10;0.00;;;;;;;14.28;100.00;97721.22;7395542;19;20015;-58
2023/09/21 10:28:29;;;;;;;0.10;0.10;;;;;;;15.17;100.00;97719.28;7394327;19;20017;-58
2023/09/21 10:31:16;;;;;;;0.10;0.10;;;;;;;14.73;100.00;97718.63;7393813;19;20066;-58
2023/09/21 10:33:51;;;;;;;0.80;0.45;;;;;;;15.19;100.00;97711.81;7392670;19;20011;-57
2023/09/21 10:36:23;;;;;;;0.55;0.32;;;;;;;14.71;100.00;97703.66;7397435;19;20017;-57
2023/09/21 10:39:05;;;;;;;0.40;0.40;;;;;;;14.76;100.00;97709.13;7392619;19;20011;-58
2023/09/21 10:41:32;;;;;;;0.52;0.52;;;;;;;15.99;100.00;97706.56;7392591;19;20038;-57
2023/09/21 10:44:02;;;;;;;0.43;0.28;;;;;;;14.99;100.00;97709.91;7392127;19;20015;-57
2023/09/21 10:46:35;;;;;;;0.10;0.00;;;;;;;15.66;100.00;97713.34;7394346;19;20010;-58
2023/09/21 10:49:04;;;;;;;0.32;0.10;;;;;;;16.36;100.00;97700.09;7399108;19;20018;-58
2023/09/21 10:51:31;;;;;;;0.08;0.08;;;;;;;16.46;100.00;97709.44;7402613;19;20027;-54
2023/09/21 10:53:59;;;;;;;0.00;0.00;;;;;;;16.75;100.00;97700.72;7399565;19;20021;-56
2023/09/21 10:56:26;;;;;;;0.88;0.38;;;;;;;16.85;100.00;97704.44;7402897;19;20358;-56
2023/09/21 10:58:52;;;;;;;0.00;0.00;;;;;;;16.65;100.00;97709.75;7399938;19;20021;-55
2023/09/21 11:01:19;;;;;;;0.20;0.20;;;;;;;17.95;100.00;97699.81;7399793;19;20029;-55
2023/09/21 11:03:48;;;;;;;6.80;0.45;;;;;;;17.32;100.00;97695.88;7400322;19;20018;-55
2023/09/21 11:06:17;;;;;;;0.98;0.32;;;;;;;18.09;100.00;97681.28;7401320;19;20019;-55
2023/09/21 11:08:47;;;;;;;0.00;0.00;;;;;;;16.85;100.00;97696.00;7399791;19;20003;-55
2023/09/21 11:11:15;;;;;;;0.10;0.10;;;;;;;18.17;100.00;97687.59;7399864;19;20412;-55
2023/09/21 11:13:42;;;;;;;0.00;0.00;;;;;;;19.00;100.00;97691.47;7399652;19;20011;-55
2023/09/21 11:16:14;;;;;;;0.20;0.20;;;;;;;18.47;100.00;97682.97;7400965;19;20016;-55
2023/09/21 11:18:40;;;;;;;0.20;0.20;;;;;;;19.31;100.00;97691.75;7399011;19;20020;-55
2023/09/21 11:21:10;;;;;;;0.57;0.20;;;;;;;19.34;100.00;97691.34;7401238;19;20015;-55
2023/09/21 11:23:37;;;;;;;0.00;0.00;;;;;;;19.11;100.00;97696.56;7398027;19;20079;-53
2023/09/21 11:26:05;;;;;;;0.95;0.22;;;;;;;18.58;100.00;97688.09;7396971;19;20014;-53
2023/09/21 11:28:36;;;;;;;0.10;0.10;;;;;;;19.06;100.00;97683.47;7401238;19;20010;-53
2023/09/21 11:31:02;;;;;;;;;;;;;;;22.70;100.00;97683.56;7396598;19;20011;-54
2023/09/21 11:33:28;;;;;;;0.10;0.10;;;;;;;33.73;52.85;97661.88;7397513;19;20331;-54
2023/09/21 11:35:54;;;;;;;0.15;0.10;;;;;;;23.21;100.00;97684.69;7397098;19;20420;-54
2023/09/21 11:38:20;;;;;;;0.25;0.15;;;;;;;19.95;100.00;97681.84;7397459;19;20011;-57
2023/09/21 11:40:50;;;;;;;0.10;0.10;;;;;;;18.79;100.00;97682.72;7400351;19;20014;-62